Terminal Aerodrome Forecast
Issued by NWS

Home | Current Version | Previous Version | Graphics & Text | Print | Product List | Glossary On
Versions: 1 2 3 4 5 6 7 8 9 10 11 12 13 14 15 16 17 18
000
FTUS43 KTOP 231022 AAB
TAFMHK
TAF AMD
KMHK 231022Z 2310/2406 19007KT P6SM VCTS SCT150CB
      TEMPO 2311/2313 28015G25KT 3SM TSRA BR BKN070CB
     FM231400 20012KT P6SM FEW250
     FM240200 17007KT P6SM FEW250=

USA.gov is the U.S. government's official web portal to all federal, state and local government web resources and services.